Time;durP1;ratioP1;P1;durP2;ratioP2;P2;SDS_P1;SDS_P2;PMS_P1;PMS_P2;Temp;Humidity;BMP_temperature;BMP_pressure;BME280_temperature;BME280_humidity;BME280_pressure;Samples;Min_cycle;Max_cycle;Signal;HPM_P1;HPM_P2
2022/06/09 00:00:24;;;;;;;1.52;0.60;;;22.60;77.80;;;;;;6215929;23;20000;-82
2022/06/09 00:02:54;;;;;;;0.90;0.40;;;22.60;77.90;;;;;;6215427;23;20304;-82
2022/06/09 00:05:21;;;;;;;0.90;0.60;;;22.60;77.80;;;;;;6214719;23;19997;-82
2022/06/09 00:07:48;;;;;;;0.47;0.45;;;22.60;78.50;;;;;;6215869;23;20319;-82
2022/06/09 00:10:23;;;;;;;1.02;0.50;;;22.60;77.40;;;;;;6215609;23;20028;-83
2022/06/09 00:12:49;;;;;;;0.98;0.50;;;22.50;78.60;;;;;;6215633;23;20015;-84
2022/06/09 00:15:16;;;;;;;1.83;1.20;;;22.50;78.00;;;;;;6189148;23;20323;-84
2022/06/09 00:17:42;;;;;;;2.90;1.40;;;22.50;79.00;;;;;;6215782;23;20005;-83
2022/06/09 00:20:10;;;;;;;0.60;0.57;;;22.40;80.10;;;;;;6214975;23;20007;-86
2022/06/09 00:22:36;;;;;;;2.53;1.35;;;22.40;78.80;;;;;;6215002;23;20007;-83
2022/06/09 00:25:03;;;;;;;1.13;0.80;;;22.30;79.40;;;;;;6215342;23;20399;-83
2022/06/09 00:27:29;;;;;;;2.53;0.88;;;22.00;80.90;;;;;;6215355;23;20000;-83
2022/06/09 00:29:54;;;;;;;1.35;0.80;;;22.10;80.70;;;;;;6215439;23;20007;-84
2022/06/09 00:32:20;;;;;;;3.20;1.40;;;22.20;81.50;;;;;;6215275;23;20068;-83
2022/06/09 00:34:46;;;;;;;3.25;1.45;;;22.20;81.50;;;;;;6214319;23;20350;-83
2022/06/09 00:37:12;;;;;;;2.10;0.90;;;22.00;81.30;;;;;;6188956;23;20005;-87
2022/06/09 00:39:38;;;;;;;2.65;0.90;;;21.80;82.00;;;;;;6215710;23;20001;-89
2022/06/09 00:42:05;;;;;;;1.17;0.68;;;22.00;81.80;;;;;;6215567;23;20023;-91
2022/06/09 00:44:31;;;;;;;2.67;0.93;;;22.10;81.50;;;;;;6217020;23;20055;-90
2022/06/09 00:47:24;;;;;;;1.45;0.93;;;22.20;80.70;;;;;;6218282;23;20032;-90
2022/06/09 00:50:15;;;;;;;2.05;0.77;;;22.30;81.00;;;;;;6217953;23;20071;-93
2022/06/09 00:52:47;;;;;;;3.70;1.30;;;22.50;81.20;;;;;;6217915;23;20091;-94
2022/06/09 00:55:17;;;;;;;1.95;0.75;;;22.40;80.50;;;;;;6218286;23;20062;-93
2022/06/09 00:58:02;;;;;;;1.73;0.70;;;22.30;79.90;;;;;;6218244;23;20154;-93
2022/06/09 01:00:33;;;;;;;1.63;0.98;;;22.40;80.10;;;;;;6217432;23;20027;-91
2022/06/09 01:03:00;;;;;;;1.67;0.70;;;22.40;80.00;;;;;;6217589;23;20000;-91
2022/06/09 01:05:29;;;;;;;1.05;0.73;;;22.50;80.30;;;;;;6217387;23;20041;-91
2022/06/09 01:08:00;;;;;;;1.40;0.90;;;22.60;80.40;;;;;;6217573;23;20059;-85
2022/06/09 01:10:29;;;;;;;1.30;1.10;;;22.60;80.20;;;;;;6217010;23;20032;-84
2022/06/09 01:12:57;;;;;;;1.20;0.90;;;22.70;79.90;;;;;;6217281;23;20054;-84
2022/06/09 01:15:29;;;;;;;1.65;0.93;;;22.70;79.40;;;;;;6215425;23;20359;-84
2022/06/09 01:18:02;;;;;;;1.48;0.80;;;22.70;79.60;;;;;;6216703;23;20008;-83
2022/06/09 01:21:00;;;;;;;1.17;1.08;;;22.70;79.40;;;;;;6216926;23;20318;-84
2022/06/09 01:23:57;;;;;;;1.48;0.85;;;22.70;78.80;;;;;;6190500;23;20027;-82
2022/06/09 01:26:23;;;;;;;2.53;1.10;;;22.60;79.80;;;;;;6216253;23;20031;-81
2022/06/09 01:29:18;;;;;;;1.00;0.90;;;22.30;79.10;;;;;;6216944;23;20000;-85
2022/06/09 01:31:49;;;;;;;1.05;0.63;;;22.10;79.20;;;;;;6217264;23;20023;-84
2022/06/09 01:34:50;;;;;;;1.35;0.88;;;22.10;79.70;;;;;;6215684;23;20001;-84
2022/06/09 01:37:25;;;;;;;1.33;0.95;;;22.20;79.30;;;;;;6216655;23;20027;-83
2022/06/09 01:39:52;;;;;;;3.03;0.90;;;22.30;80.00;;;;;;6216554;23;20071;-83
2022/06/09 01:42:38;;;;;;;1.98;0.90;;;22.20;80.90;;;;;;6216739;23;20012;-84
2022/06/09 01:45:18;;;;;;;1.65;0.80;;;22.00;81.30;;;;;;6216565;23;20009;-85
2022/06/09 01:48:06;;;;;;;1.25;0.95;;;22.00;80.70;;;;;;6216734;23;20020;-84
2022/06/09 01:50:34;;;;;;;1.50;0.90;;;22.10;80.50;;;;;;6216651;23;20051;-84
2022/06/09 01:53:04;;;;;;;0.98;0.85;;;22.30;80.60;;;;;;6216958;23;20000;-83
2022/06/09 01:55:32;;;;;;;1.60;1.25;;;22.30;80.30;;;;;;6216385;23;20005;-83
2022/06/09 01:58:04;;;;;;;1.17;0.80;;;22.40;80.00;;;;;;6216524;23;20419;-83
2022/06/09 02:00:30;;;;;;;1.42;0.93;;;22.40;79.30;;;;;;6216550;23;20459;-83
2022/06/09 02:03:09;;;;;;;1.15;0.75;;;22.40;79.30;;;;;;6215160;23;20000;-83
2022/06/09 02:05:39;;;;;;;1.65;1.30;;;22.50;78.80;;;;;;6216005;23;19997;-83
2022/06/09 02:08:09;;;;;;;1.15;0.80;;;22.50;79.00;;;;;;6216580;23;20004;-82
2022/06/09 02:10:38;;;;;;;0.75;0.60;;;22.50;79.20;;;;;;6216940;23;20311;-82
2022/06/09 02:13:11;;;;;;;0.88;0.50;;;22.50;79.20;;;;;;6216672;23;20091;-82
2022/06/09 02:15:43;;;;;;;0.88;0.47;;;22.50;78.90;;;;;;6215910;23;20086;-83
2022/06/09 02:18:16;;;;;;;1.88;1.00;;;22.50;78.60;;;;;;6215673;23;20059;-83
2022/06/09 02:20:48;;;;;;;1.10;0.70;;;22.60;78.50;;;;;;6216424;23;19997;-83
2022/06/09 02:23:14;;;;;;;1.35;0.70;;;22.60;78.90;;;;;;6216373;23;20027;-82
2022/06/09 02:25:40;;;;;;;0.63;0.50;;;22.60;78.90;;;;;;6215981;23;20054;-83
2022/06/09 02:28:08;;;;;;;1.02;0.60;;;22.60;78.20;;;;;;6216242;23;20000;-88
2022/06/09 02:30:36;;;;;;;1.50;0.70;;;22.50;77.90;;;;;;6216124;23;20012;-86
2022/06/09 02:33:02;;;;;;;1.33;0.70;;;22.50;78.40;;;;;;6215159;23;20001;-86
2022/06/09 02:35:28;;;;;;;1.40;0.98;;;22.50;77.60;;;;;;6189401;23;20322;-87
2022/06/09 02:37:54;;;;;;;2.42;1.20;;;22.50;77.90;;;;;;6216110;23;20012;-85
2022/06/09 02:40:20;;;;;;;1.40;1.02;;;22.60;78.20;;;;;;6216320;23;20001;-86
2022/06/09 02:42:45;;;;;;;1.30;1.00;;;22.60;78.60;;;;;;6215709;23;20016;-85
2022/06/09 02:45:15;;;;;;;1.52;0.77;;;22.60;79.10;;;;;;6215112;23;20373;-87
2022/06/09 02:47:41;;;;;;;1.48;0.73;;;22.60;79.30;;;;;;6215722;23;20000;-88
2022/06/09 02:50:07;;;;;;;0.63;0.60;;;22.60;79.20;;;;;;6215221;23;20027;-86
2022/06/09 02:52:32;;;;;;;1.58;0.50;;;22.50;79.20;;;;;;6215466;23;20103;-84
2022/06/09 02:54:58;;;;;;;1.30;1.02;;;22.50;79.00;;;;;;6215302;23;20055;-84
2022/06/09 02:57:24;;;;;;;1.65;1.17;;;22.30;77.30;;;;;;6214358;23;20331;-85
2022/06/09 02:59:53;;;;;;;2.53;1.25;;;21.90;80.00;;;;;;6215735;23;20028;-85
2022/06/09 03:02:20;;;;;;;2.70;1.10;;;21.70;82.00;;;;;;6215157;23;20032;-84
2022/06/09 03:04:45;;;;;;;1.23;0.82;;;21.20;82.90;;;;;;6215192;23;19997;-84
2022/06/09 03:07:12;;;;;;;0.93;0.60;;;21.10;83.60;;;;;;6215212;23;20009;-84
2022/06/09 03:09:38;;;;;;;1.88;0.90;;;21.20;83.60;;;;;;6216233;23;20051;-86
2022/06/09 03:12:04;;;;;;;1.45;0.90;;;21.10;83.60;;;;;;6216061;23;20018;-86
2022/06/09 03:14:30;;;;;;;1.30;0.70;;;20.90;83.40;;;;;;6189474;23;20319;-84
2022/06/09 03:16:56;;;;;;;0.50;0.47;;;20.90;84.20;;;;;;6214645;23;20004;-85
2022/06/09 03:19:22;;;;;;;0.93;0.60;;;20.90;84.10;;;;;;6215751;23;20072;-84
2022/06/09 03:21:47;;;;;;;1.02;0.70;;;20.90;84.40;;;;;;6216121;23;20001;-84
2022/06/09 03:24:13;;;;;;;1.15;0.55;;;21.00;84.10;;;;;;6215316;23;20058;-83
2022/06/09 03:26:39;;;;;;;2.00;0.85;;;21.10;83.50;;;;;;6216011;23;19997;-85
2022/06/09 03:29:05;;;;;;;2.50;0.77;;;20.90;82.00;;;;;;6215767;23;20001;-83
2022/06/09 03:31:30;;;;;;;1.08;0.55;;;20.90;83.50;;;;;;6215700;23;20035;-84
2022/06/09 03:33:56;;;;;;;1.63;0.70;;;20.80;82.30;;;;;;6215600;23;19996;-85
2022/06/09 03:36:22;;;;;;;2.92;0.57;;;20.70;82.20;;;;;;6214778;23;20001;-84
2022/06/09 03:38:48;;;;;;;1.75;0.50;;;20.40;82.50;;;;;;6214721;23;20051;-81
2022/06/09 03:41:13;;;;;;;1.67;0.40;;;20.40;83.00;;;;;;6214946;23;19996;-82
2022/06/09 03:43:39;;;;;;;1.02;0.30;;;20.40;82.50;;;;;;6215317;23;20374;-83
2022/06/09 03:46:05;;;;;;;1.10;0.30;;;20.50;81.80;;;;;;6213316;23;20072;-82
2022/06/09 03:48:31;;;;;;;1.55;0.30;;;20.60;81.00;;;;;;6215209;23;20001;-84
2022/06/09 03:50:57;;;;;;;0.93;0.30;;;20.40;81.50;;;;;;6215059;23;20046;-82
2022/06/09 03:53:22;;;;;;;0.28;0.20;;;20.50;81.80;;;;;;6215437;23;20012;-80
2022/06/09 03:55:48;;;;;;;0.13;0.13;;;20.70;82.10;;;;;;6188034;23;20017;-81
2022/06/09 03:58:14;;;;;;;0.95;0.30;;;20.90;81.50;;;;;;6212628;23;20005;-81
2022/06/09 04:00:40;;;;;;;0.95;0.30;;;20.80;80.00;;;;;;6188313;23;20005;-81
2022/06/09 04:03:05;;;;;;;0.47;0.30;;;20.90;80.50;;;;;;6188251;23;20028;-81
2022/06/09 04:05:32;;;;;;;0.77;0.20;;;21.00;80.90;;;;;;6213476;23;20051;-81
2022/06/09 04:08:02;;;;;;;1.05;0.22;;;21.20;80.80;;;;;;6212799;23;20005;-81
2022/06/09 04:10:30;;;;;;;1.10;0.20;;;21.10;79.10;;;;;;6214839;23;20032;-81
2022/06/09 04:12:57;;;;;;;2.40;0.25;;;21.20;80.10;;;;;;6215413;23;20008;-81
2022/06/09 04:15:23;;;;;;;0.20;0.10;;;21.10;78.70;;;;;;6215254;23;20001;-81
2022/06/09 04:17:51;;;;;;;0.15;0.15;;;21.10;79.70;;;;;;6213153;23;20009;-80
2022/06/09 04:20:20;;;;;;;0.35;0.10;;;21.20;79.50;;;;;;6214099;23;20004;-81
2022/06/09 04:22:46;;;;;;;0.95;0.20;;;21.20;80.00;;;;;;6214851;23;20000;-81
2022/06/09 04:25:13;;;;;;;0.20;0.10;;;21.20;79.00;;;;;;6215291;23;20418;-82
2022/06/09 04:27:39;;;;;;;0.22;0.20;;;21.10;79.00;;;;;;6214682;23;20583;-82
2022/06/09 04:30:06;;;;;;;0.75;0.20;;;21.10;79.60;;;;;;6215272;23;20011;-87
2022/06/09 04:32:31;;;;;;;0.30;0.10;;;20.80;77.20;;;;;;6215048;23;20090;-84
2022/06/09 04:34:57;;;;;;;0.55;0.10;;;20.60;79.00;;;;;;6215385;23;20415;-84
2022/06/09 04:37:59;;;;;;;0.55;0.20;;;20.70;79.60;;;;;;6214546;23;20430;-84
2022/06/09 04:40:10;;;;;;;0.20;0.10;;;20.80;79.50;;;;;;6213582;23;20017;-84
2022/06/09 04:42:35;;;;;;;0.43;0.20;;;21.00;80.10;;;;;;6214485;23;20008;-84
2022/06/09 04:45:01;;;;;;;0.77;0.20;;;21.10;80.00;;;;;;6214495;23;20374;-85
2022/06/09 04:47:26;;;;;;;0.52;0.28;;;21.20;80.00;;;;;;6215098;23;20015;-86
2022/06/09 04:49:52;;;;;;;1.08;0.50;;;21.30;79.80;;;;;;6214973;23;20052;-85
2022/06/09 04:52:21;;;;;;;0.35;0.20;;;21.40;77.90;;;;;;6186446;23;20451;-85
2022/06/09 04:54:46;;;;;;;1.10;0.47;;;21.30;78.50;;;;;;6213361;23;20016;-85
2022/06/09 04:57:12;;;;;;;0.70;0.30;;;21.40;78.90;;;;;;6213453;23;20084;-85
2022/06/09 04:59:38;;;;;;;0.45;0.20;;;21.40;77.90;;;;;;6215388;23;20027;-84
2022/06/09 05:02:03;;;;;;;0.45;0.30;;;21.30;77.80;;;;;;6215001;23;19997;-90
2022/06/09 05:04:29;;;;;;;0.80;0.52;;;21.30;76.30;;;;;;6215859;23;20000;-92
2022/06/09 05:06:55;;;;;;;1.20;0.40;;;21.30;77.60;;;;;;6216271;23;20371;-93
2022/06/09 05:09:20;;;;;;;0.65;0.17;;;21.30;77.30;;;;;;6216530;23;20370;-94
2022/06/09 05:11:46;;;;;;;0.50;0.40;;;21.20;77.60;;;;;;6216086;23;20054;-92
2022/06/09 05:14:13;;;;;;;1.67;0.60;;;21.20;78.00;;;;;;6215261;23;20012;-86
2022/06/09 05:16:39;;;;;;;0.45;0.38;;;21.20;78.20;;;;;;6214231;23;20005;-87
2022/06/09 05:19:05;;;;;;;0.35;0.30;;;21.30;78.60;;;;;;6214935;23;20096;-86
2022/06/09 05:21:30;;;;;;;0.40;0.20;;;21.40;78.50;;;;;;6215069;23;19997;-89
2022/06/09 05:23:56;;;;;;;1.27;0.30;;;21.40;78.60;;;;;;6213958;23;20004;-86
2022/06/09 05:26:22;;;;;;;0.30;0.30;;;21.50;78.40;;;;;;6213406;23;20012;-85
2022/06/09 05:28:47;;;;;;;0.45;0.30;;;21.50;78.50;;;;;;6214359;23;20012;-85
2022/06/09 05:31:13;;;;;;;1.38;0.30;;;21.40;78.80;;;;;;6215364;23;20005;-83
2022/06/09 05:33:40;;;;;;;1.20;0.55;;;21.30;80.50;;;;;;6214670;23;20051;-83
2022/06/09 05:36:07;;;;;;;0.73;0.40;;;21.20;81.40;;;;;;6214979;23;20004;-84
2022/06/09 05:46:47;;;;;;;1.08;0.60;;;21.40;83.30;;;;;;6216452;23;20047;-90
2022/06/09 05:49:13;;;;;;;1.63;0.85;;;21.40;82.50;;;;;;6216577;23;19996;-91
2022/06/09 05:51:38;;;;;;;0.90;0.60;;;21.40;81.80;;;;;;6190395;23;20008;-89
2022/06/09 05:54:05;;;;;;;0.47;0.47;;;21.30;82.50;;;;;;6192400;23;20009;-94
2022/06/09 05:56:31;;;;;;;0.55;0.40;;;21.20;82.90;;;;;;6217644;23;20008;-92
2022/06/09 05:58:57;;;;;;;0.77;0.60;;;21.20;82.40;;;;;;6216626;23;20032;-91
2022/06/09 06:01:23;;;;;;;0.95;0.68;;;21.20;83.80;;;;;;6216307;23;20051;-90
2022/06/09 06:03:48;;;;;;;0.63;0.52;;;21.20;82.80;;;;;;6216298;23;20004;-88
2022/06/09 06:08:59;;;;;;;1.45;0.65;;;21.30;83.10;;;;;;6215746;23;20096;-85
2022/06/09 06:11:24;;;;;;;1.00;0.40;;;21.30;83.30;;;;;;6217148;23;20399;-82
2022/06/09 06:13:54;;;;;;;1.05;0.70;;;21.30;83.50;;;;;;6230494;23;20423;-81
2022/06/09 06:16:20;;;;;;;0.83;0.30;;;21.30;82.80;;;;;;6224128;23;20008;-82
2022/06/09 06:18:45;;;;;;;1.15;0.70;;;21.30;83.20;;;;;;6192306;23;20009;-81
2022/06/09 06:21:11;;;;;;;1.15;0.60;;;21.40;83.10;;;;;;6214663;23;20000;-80
2022/06/09 06:23:37;;;;;;;2.65;0.50;;;21.40;82.70;;;;;;6213196;23;20112;-80
2022/06/09 06:26:03;;;;;;;1.98;0.57;;;21.20;81.50;;;;;;6181715;23;20222;-80
2022/06/09 06:28:29;;;;;;;0.55;0.40;;;21.20;82.20;;;;;;6211609;23;20008;-79
2022/06/09 06:30:55;;;;;;;0.80;0.80;;;21.00;82.90;;;;;;6212865;23;20315;-80
2022/06/09 06:33:22;;;;;;;1.17;0.68;;;20.90;83.80;;;;;;6211452;23;20013;-78
2022/06/09 06:35:49;;;;;;;1.50;0.88;;;20.70;82.70;;;;;;6212425;23;20007;-79
2022/06/09 06:38:15;;;;;;;3.90;0.65;;;20.70;83.10;;;;;;6211470;23;20015;-79
2022/06/09 06:40:41;;;;;;;0.60;0.50;;;20.50;83.00;;;;;;6215686;23;20004;-78
2022/06/09 06:43:08;;;;;;;1.58;0.60;;;20.60;83.60;;;;;;6214779;23;20008;-79
2022/06/09 06:45:35;;;;;;;1.52;0.57;;;20.60;83.30;;;;;;6211580;23;20006;-82
2022/06/09 06:48:00;;;;;;;0.35;0.35;;;20.60;83.20;;;;;;6214387;23;20347;-78
2022/06/09 06:50:26;;;;;;;0.60;0.20;;;20.60;82.70;;;;;;6214119;23;20036;-78
2022/06/09 06:52:52;;;;;;;0.60;0.30;;;20.60;82.40;;;;;;6210251;23;20299;-79
2022/06/09 06:55:20;;;;;;;1.15;0.50;;;20.70;82.00;;;;;;6208314;23;20453;-79
2022/06/09 06:57:46;;;;;;;1.20;0.43;;;20.80;81.40;;;;;;6214289;23;20415;-79
2022/06/09 07:00:15;;;;;;;2.75;0.60;;;20.80;81.70;;;;;;6213586;23;19997;-79
2022/06/09 07:02:41;;;;;;;1.30;0.30;;;20.60;80.90;;;;;;6213928;23;20001;-79
2022/06/09 07:05:08;;;;;;;1.92;0.50;;;20.50;82.00;;;;;;6213878;23;20004;-80
2022/06/09 07:07:39;;;;;;;0.22;0.20;;;20.50;81.30;;;;;;6213978;23;20059;-79
2022/06/09 07:10:06;;;;;;;1.02;0.40;;;20.60;82.10;;;;;;6213520;23;20055;-79
2022/06/09 07:12:32;;;;;;;1.45;0.43;;;20.50;81.30;;;;;;6214498;23;20005;-79
2022/06/09 07:14:58;;;;;;;0.75;0.30;;;20.20;81.50;;;;;;6187475;23;20523;-78
2022/06/09 07:17:24;;;;;;;0.20;0.20;;;20.30;82.60;;;;;;6214001;23;20060;-80
2022/06/09 07:19:50;;;;;;;1.67;0.45;;;20.50;81.40;;;;;;6210974;23;20004;-80
2022/06/09 07:22:16;;;;;;;1.00;0.60;;;20.50;80.70;;;;;;6210547;23;20005;-79
2022/06/09 07:24:43;;;;;;;0.57;0.50;;;20.20;80.20;;;;;;6210102;23;20005;-78
2022/06/09 07:27:08;;;;;;;2.78;0.60;;;20.00;81.70;;;;;;6212255;23;20008;-79
2022/06/09 07:29:34;;;;;;;1.20;0.40;;;20.20;81.60;;;;;;6214839;23;20058;-79
2022/06/09 07:32:00;;;;;;;1.02;0.50;;;20.10;80.70;;;;;;6215083;23;20698;-79
2022/06/09 07:34:26;;;;;;;1.13;0.43;;;20.20;80.80;;;;;;6213671;23;20011;-79
2022/06/09 07:36:52;;;;;;;1.07;0.30;;;20.30;80.90;;;;;;6214046;23;20009;-79
2022/06/09 07:39:18;;;;;;;5.65;0.70;;;20.30;80.90;;;;;;6214363;23;20000;-80
2022/06/09 07:41:45;;;;;;;1.58;0.43;;;20.30;80.60;;;;;;6214723;23;20067;-78
2022/06/09 07:44:11;;;;;;;2.80;0.80;;;20.30;81.70;;;;;;6213600;23;20000;-78
2022/06/09 07:46:39;;;;;;;1.20;0.40;;;20.30;80.60;;;;;;6187660;23;20050;-81
2022/06/09 07:49:06;;;;;;;1.48;0.52;;;20.40;80.50;;;;;;6215851;23;20326;-81
2022/06/09 07:51:32;;;;;;;0.73;0.35;;;20.20;80.80;;;;;;6213794;23;20303;-81
2022/06/09 07:53:59;;;;;;;0.40;0.30;;;20.40;80.90;;;;;;6213568;23;20000;-79
2022/06/09 07:56:25;;;;;;;1.42;0.52;;;20.60;80.60;;;;;;6214644;23;20435;-83
2022/06/09 07:58:51;;;;;;;1.20;0.70;;;20.30;79.10;;;;;;6215857;23;20431;-83
2022/06/09 08:01:19;;;;;;;3.38;0.55;;;20.40;81.00;;;;;;6215814;23;20001;-83
2022/06/09 08:03:46;;;;;;;2.92;0.60;;;20.30;80.00;;;;;;6215171;23;20434;-82
2022/06/09 08:06:14;;;;;;;0.85;0.50;;;20.20;79.40;;;;;;6214229;23;20004;-81
2022/06/09 08:08:39;;;;;;;0.60;0.35;;;20.20;80.10;;;;;;6215199;23;20008;-82
2022/06/09 08:11:07;;;;;;;0.52;0.40;;;20.20;79.70;;;;;;6215054;23;20449;-80
2022/06/09 08:13:34;;;;;;;0.80;0.32;;;20.00;79.20;;;;;;6215079;23;20079;-80
2022/06/09 08:16:00;;;;;;;0.85;0.30;;;20.20;79.70;;;;;;6212251;23;20008;-79
2022/06/09 08:18:26;;;;;;;1.40;0.40;;;20.30;78.20;;;;;;6214154;23;20054;-78
2022/06/09 08:20:52;;;;;;;0.90;0.40;;;20.50;77.00;;;;;;6214644;23;20374;-80
2022/06/09 08:23:22;;;;;;;0.98;0.35;;;20.60;77.90;;;;;;6213812;23;20367;-80
2022/06/09 08:25:49;;;;;;;1.13;0.33;;;20.70;76.90;;;;;;6215199;23;20005;-79
2022/06/09 08:28:19;;;;;;;1.38;0.50;;;20.80;76.70;;;;;;6213052;23;20228;-79
2022/06/09 08:30:47;;;;;;;0.73;0.40;;;21.00;76.10;;;;;;6214519;23;20011;-79
2022/06/09 08:33:13;;;;;;;1.33;0.30;;;21.10;74.80;;;;;;6214409;23;20008;-79
2022/06/09 08:35:39;;;;;;;0.73;0.20;;;21.00;75.00;;;;;;6214805;23;20104;-79
2022/06/09 08:38:06;;;;;;;0.60;0.30;;;21.00;74.40;;;;;;6214526;23;20008;-79
2022/06/09 08:40:54;;;;;;;0.73;0.20;;;21.20;75.60;;;;;;6212891;23;20005;-80
2022/06/09 08:43:37;;;;;;;0.40;0.30;;;21.30;74.80;;;;;;6187772;23;20462;-80
2022/06/09 08:46:41;;;;;;;0.30;0.30;;;21.20;74.80;;;;;;6214963;23;20431;-78
2022/06/09 08:49:21;;;;;;;2.15;0.52;;;21.00;75.50;;;;;;6171732;23;20378;-80
2022/06/09 08:51:48;;;;;;;;;;;21.00;75.90;;;;;;6214179;23;20000;-79
2022/06/09 08:54:27;;;;;;;1.13;0.38;;;21.00;76.80;;;;;;6215284;23;19950;-80
2022/06/09 08:56:54;;;;;;;3.00;0.40;;;20.90;75.70;;;;;;6214545;23;20031;-80
2022/06/09 08:59:29;;;;;;;1.85;0.30;;;20.70;75.30;;;;;;6188137;23;20358;-81
2022/06/09 09:02:00;;;;;;;2.58;0.40;;;20.70;75.70;;;;;;6212693;23;20522;-79
2022/06/09 09:04:42;;;;;;;0.75;0.38;;;20.60;76.50;;;;;;6207619;23;20384;-80
2022/06/09 09:07:33;;;;;;;2.83;0.50;;;20.70;77.60;;;;;;6215940;23;20063;-80
2022/06/09 09:10:17;;;;;;;1.52;0.40;;;20.80;76.10;;;;;;6214541;23;20008;-79
2022/06/09 09:12:55;;;;;;;0.73;0.40;;;20.90;74.30;;;;;;6215155;23;20008;-80
2022/06/09 09:15:27;;;;;;;0.95;0.40;;;21.00;74.70;;;;;;6216213;23;19996;-80
2022/06/09 09:18:05;;;;;;;2.75;0.85;;;20.90;74.30;;;;;;6215548;23;20092;-80
2022/06/09 09:21:01;;;;;;;1.20;0.35;;;20.90;73.80;;;;;;6213504;23;20008;-81
2022/06/09 09:23:47;;;;;;;2.20;0.55;;;21.00;73.50;;;;;;6214994;23;20072;-80
2022/06/09 09:26:22;;;;;;;1.20;0.75;;;21.00;74.90;;;;;;6214676;23;20001;-79
2022/06/09 09:28:49;;;;;;;1.20;0.70;;;21.00;76.40;;;;;;6215370;23;20087;-80
2022/06/09 09:31:44;;;;;;;2.38;0.50;;;21.20;76.30;;;;;;6215332;23;20011;-80
2022/06/09 09:34:16;;;;;;;0.90;0.40;;;21.10;75.10;;;;;;6215621;23;20122;-80
2022/06/09 09:36:46;;;;;;;0.40;0.40;;;20.90;73.90;;;;;;6215518;23;20009;-80
2022/06/09 09:39:30;;;;;;;0.82;0.50;;;20.80;76.00;;;;;;6214947;23;20005;-81
2022/06/09 09:42:17;;;;;;;1.65;0.50;;;20.80;75.90;;;;;;6206674;23;20013;-79
2022/06/09 09:45:01;;;;;;;1.70;0.60;;;20.70;76.40;;;;;;6214605;23;20028;-79
2022/06/09 09:47:30;;;;;;;0.55;0.20;;;20.80;76.90;;;;;;6187504;23;20426;-80
2022/06/09 09:50:12;;;;;;;0.68;0.30;;;20.90;77.20;;;;;;6187313;23;20084;-80
2022/06/09 09:52:42;;;;;;;0.55;0.40;;;20.90;77.40;;;;;;6214920;23;20009;-80
2022/06/09 09:55:30;;;;;;;0.50;0.40;;;20.90;78.80;;;;;;6213156;23;20470;-79
2022/06/09 09:58:21;;;;;;;2.75;0.40;;;21.10;78.30;;;;;;6214151;23;20004;-80
2022/06/09 10:00:50;;;;;;;0.50;0.30;;;21.10;79.20;;;;;;6215148;23;20004;-79
2022/06/09 10:09:23;;;;;;;0.55;0.30;;;21.00;80.10;;;;;;6213971;23;20629;-80
2022/06/09 10:11:55;;;;;;;2.88;0.70;;;21.10;79.40;;;;;;6213919;23;20008;-80
2022/06/09 10:14:36;;;;;;;0.55;0.40;;;21.00;79.20;;;;;;6214847;23;20474;-80
2022/06/09 10:17:25;;;;;;;1.65;0.30;;;20.90;79.50;;;;;;6214133;23;20308;-80
2022/06/09 10:20:15;;;;;;;0.77;0.30;;;20.90;79.00;;;;;;6215008;23;20477;-80
2022/06/09 10:22:54;;;;;;;;;;;21.00;80.10;;;;;;6214161;23;20007;-79
2022/06/09 10:25:38;;;;;;;2.40;0.50;;;21.10;79.60;;;;;;6213058;23;19915;-82
2022/06/09 10:28:28;;;;;;;0.47;0.30;;;21.20;80.80;;;;;;6213763;23;20005;-80
2022/06/09 10:31:32;;;;;;;2.05;0.30;;;21.20;79.90;;;;;;6215753;23;20434;-81
2022/06/09 10:34:06;;;;;;;0.50;0.50;;;21.30;80.50;;;;;;6144061;23;20009;-79
2022/06/09 10:37:01;;;;;;;0.80;0.40;;;21.40;80.10;;;;;;6215575;23;20422;-78
2022/06/09 10:39:59;;;;;;;1.13;0.40;;;21.30;78.50;;;;;;6199581;23;20016;-79
2022/06/09 10:42:40;;;;;;;0.15;0.15;;;21.40;79.10;;;;;;6193515;23;20097;-80
2022/06/09 10:45:33;;;;;;;0.22;0.20;;;21.50;79.80;;;;;;6216280;23;20016;-81
2022/06/09 10:56:53;;;;;;;0.35;0.30;;;21.50;78.30;;;;;;6215666;23;20323;-81
2022/06/09 10:59:49;;;;;;;0.50;0.30;;;21.60;78.70;;;;;;6189081;23;20423;-82
2022/06/09 11:02:21;;;;;;;0.98;0.40;;;21.50;76.40;;;;;;6215295;23;20411;-80
2022/06/09 11:04:48;;;;;;;1.35;0.50;;;21.40;78.10;;;;;;6214954;23;20421;-80
2022/06/09 11:07:41;;;;;;;1.80;0.60;;;21.40;78.10;;;;;;6214852;23;20000;-81
2022/06/09 11:10:28;;;;;;;1.48;0.63;;;21.50;78.70;;;;;;6214029;23;20007;-77
2022/06/09 11:13:36;;;;;;;2.10;0.70;;;21.70;79.00;;;;;;6215032;23;20137;-77
2022/06/09 11:16:37;;;;;;;1.17;0.68;;;21.70;78.40;;;;;;6174122;23;20005;-77
2022/06/09 11:19:40;;;;;;;1.75;0.57;;;21.70;78.40;;;;;;6188814;23;20058;-78
2022/06/09 11:22:40;;;;;;;1.60;0.73;;;21.70;78.60;;;;;;6213739;23;20304;-79
2022/06/09 11:25:30;;;;;;;1.05;0.57;;;21.70;78.50;;;;;;6215364;23;20001;-78
2022/06/09 11:28:07;;;;;;;1.65;0.70;;;21.80;80.30;;;;;;6213983;23;20008;-78
2022/06/09 11:30:59;;;;;;;1.70;0.80;;;21.90;79.80;;;;;;6187117;23;20050;-79
2022/06/09 11:33:58;;;;;;;3.45;0.73;;;22.00;79.70;;;;;;6214672;23;20031;-78
2022/06/09 11:36:46;;;;;;;2.75;0.77;;;21.80;79.70;;;;;;6213663;23;20004;-79
2022/06/09 11:39:19;;;;;;;1.15;0.60;;;21.60;79.90;;;;;;6206898;23;20011;-78
2022/06/09 11:41:58;;;;;;;0.80;0.60;;;21.60;79.80;;;;;;6213604;23;20013;-79
2022/06/09 11:44:32;;;;;;;2.75;0.70;;;21.40;79.90;;;;;;6214386;23;20001;-80
2022/06/09 11:47:02;;;;;;;1.45;0.63;;;21.30;79.20;;;;;;6214250;23;20008;-79
2022/06/09 11:50:04;;;;;;;0.52;0.43;;;21.10;79.40;;;;;;6213475;23;19997;-80
2022/06/09 11:52:40;;;;;;;1.65;0.57;;;21.30;81.90;;;;;;6149132;23;20064;-80
2022/06/09 11:55:25;;;;;;;0.77;0.30;;;21.40;81.40;;;;;;6212891;23;20005;-81
2022/06/09 11:57:51;;;;;;;0.30;0.30;;;21.60;81.10;;;;;;6214083;23;20001;-79
2022/06/09 12:00:22;;;;;;;1.10;0.50;;;21.70;80.10;;;;;;6212736;23;20004;-79
2022/06/09 12:03:20;;;;;;;1.15;0.60;;;21.70;79.90;;;;;;6214189;23;20035;-80
2022/06/09 12:06:24;;;;;;;1.23;0.70;;;21.70;80.00;;;;;;6215409;23;20024;-80
2022/06/09 12:09:09;;;;;;;1.27;0.50;;;21.70;79.60;;;;;;6210952;23;20071;-79
2022/06/09 12:12:00;;;;;;;1.25;0.50;;;21.70;79.40;;;;;;6210908;23;20000;-81
2022/06/09 12:14:29;;;;;;;0.77;0.50;;;21.80;79.10;;;;;;6196806;23;20011;-79
2022/06/09 12:17:08;;;;;;;0.73;0.30;;;21.90;79.50;;;;;;6184295;23;20855;-80
2022/06/09 12:19:55;;;;;;;1.23;0.60;;;22.00;76.70;;;;;;6210960;23;20005;-81
2022/06/09 12:22:33;;;;;;;0.60;0.43;;;21.80;77.70;;;;;;6207722;23;20430;-79
2022/06/09 12:25:21;;;;;;;1.05;0.40;;;21.90;78.30;;;;;;6211630;23;20644;-80
2022/06/09 12:27:52;;;;;;;0.95;0.50;;;22.00;76.60;;;;;;6183881;23;20497;-80
2022/06/09 12:30:26;;;;;;;0.45;0.30;;;22.10;76.60;;;;;;6210213;23;20474;-80
2022/06/09 12:33:11;;;;;;;0.50;0.28;;;22.30;78.60;;;;;;6210914;23;20445;-80
2022/06/09 12:35:47;;;;;;;1.45;0.30;;;22.40;76.10;;;;;;6209400;23;20004;-81
2022/06/09 12:38:20;;;;;;;1.08;0.30;;;22.30;75.40;;;;;;6210305;23;20123;-81
2022/06/09 12:40:51;;;;;;;1.75;0.75;;;22.50;76.80;;;;;;6210231;23;20031;-81
2022/06/09 12:43:26;;;;;;;0.95;0.50;;;22.50;73.20;;;;;;6209697;23;20075;-81
2022/06/09 12:46:15;;;;;;;1.40;0.50;;;22.50;74.90;;;;;;6183876;23;20091;-82
2022/06/09 12:48:41;;;;;;;0.95;0.40;;;22.30;72.50;;;;;;6211156;23;20004;-82
2022/06/09 12:51:22;;;;;;;0.30;0.30;;;22.20;73.30;;;;;;6212048;23;20015;-81
2022/06/09 12:54:04;;;;;;;0.52;0.28;;;22.20;75.50;;;;;;6211522;23;20488;-81
2022/06/09 12:56:43;;;;;;;1.02;0.32;;;22.10;74.30;;;;;;6209265;23;20593;-81
2022/06/09 12:59:39;;;;;;;1.48;0.60;;;22.10;74.90;;;;;;6211382;23;20009;-81
2022/06/09 13:02:31;;;;;;;1.05;0.40;;;22.20;76.00;;;;;;6212261;23;20001;-80
2022/06/09 13:05:15;;;;;;;0.28;0.20;;;22.40;77.60;;;;;;6209755;23;20009;-81
2022/06/09 13:07:49;;;;;;;0.65;0.20;;;22.60;76.30;;;;;;6213764;23;20001;-81
2022/06/09 13:10:27;;;;;;;2.63;0.40;;;22.70;76.30;;;;;;6211374;23;20008;-81
2022/06/09 13:13:04;;;;;;;1.40;0.55;;;22.60;73.70;;;;;;6211469;23;20004;-81
2022/06/09 13:15:33;;;;;;;0.88;0.30;;;22.50;72.90;;;;;;6211513;23;20833;-81
2022/06/09 13:18:11;;;;;;;0.45;0.28;;;22.40;73.40;;;;;;6212298;23;20004;-82
2022/06/09 13:20:46;;;;;;;0.40;0.30;;;22.50;74.60;;;;;;6213122;23;19997;-82
2022/06/09 13:23:13;;;;;;;0.30;0.17;;;22.70;75.70;;;;;;6212217;23;20072;-80
2022/06/09 13:25:40;;;;;;;0.85;0.28;;;22.80;76.10;;;;;;6187514;23;20319;-79
2022/06/09 13:28:32;;;;;;;0.25;0.20;;;22.80;75.10;;;;;;6211745;23;20451;-79
2022/06/09 13:31:00;;;;;;;0.43;0.35;;;22.80;74.30;;;;;;6213897;23;20036;-79
2022/06/09 13:33:56;;;;;;;0.63;0.20;;;22.60;72.50;;;;;;6186589;23;20008;-81
2022/06/09 13:36:31;;;;;;;1.25;0.38;;;22.60;73.20;;;;;;6187643;23;20380;-79
2022/06/09 13:39:18;;;;;;;1.65;0.40;;;22.60;73.70;;;;;;6213826;23;20374;-80
2022/06/09 13:41:45;;;;;;;0.55;0.35;;;22.60;72.30;;;;;;6214349;23;20009;-80